createdAt,value
2018-06-13T00:00:27.370Z,0.00
2018-06-13T00:01:27.351Z,0.00
2018-06-13T00:02:27.337Z,0.00
2018-06-13T00:03:27.325Z,0.00
2018-06-13T00:04:27.315Z,0.00
2018-06-13T00:05:27.292Z,0.00
2018-06-13T00:06:27.287Z,0.00
2018-06-13T00:07:27.274Z,0.00
2018-06-13T00:08:27.258Z,0.00
2018-06-13T00:09:27.242Z,0.00
2018-06-13T00:10:27.226Z,0.00
2018-06-13T00:11:27.210Z,0.00
2018-06-13T00:12:27.200Z,0.00
2018-06-13T00:13:27.181Z,0.00
2018-06-13T00:14:27.181Z,0.00
2018-06-13T00:15:27.159Z,0.00
2018-06-13T00:16:27.149Z,0.00
2018-06-13T00:17:27.124Z,0.00
2018-06-13T00:18:27.111Z,0.00
2018-06-13T00:19:27.097Z,0.00
2018-06-13T00:20:27.082Z,0.00
2018-06-13T00:21:27.066Z,0.00
2018-06-13T00:22:27.050Z,0.00
2018-06-13T00:23:27.040Z,0.00
2018-06-13T00:24:27.024Z,0.00
2018-06-13T00:25:27.010Z,0.00
2018-06-13T00:26:26.995Z,0.00
2018-06-13T00:27:26.983Z,0.00
2018-06-13T00:28:26.965Z,0.00
2018-06-13T00:29:26.958Z,0.00
2018-06-13T00:30:26.936Z,0.00
2018-06-13T00:31:26.926Z,0.00
2018-06-13T00:32:26.962Z,0.00
2018-06-13T00:33:26.894Z,0.00
2018-06-13T00:34:26.878Z,0.00
2018-06-13T00:35:26.885Z,0.00
2018-06-13T00:36:26.849Z,0.00
2018-06-13T00:37:26.843Z,0.00
2018-06-13T00:38:26.866Z,0.00
2018-06-13T00:39:26.811Z,0.00
2018-06-13T00:40:26.798Z,0.00
2018-06-13T00:41:26.776Z,0.00
2018-06-13T00:42:26.767Z,0.00
2018-06-13T00:43:26.749Z,0.00
2018-06-13T00:44:26.735Z,0.00
2018-06-13T00:45:26.719Z,0.00
2018-06-13T00:46:26.712Z,0.00
2018-06-13T00:47:26.690Z,0.00
2018-06-13T00:48:26.684Z,0.00
2018-06-13T00:49:26.671Z,0.00
2018-06-13T00:50:26.649Z,0.00
2018-06-13T00:51:26.633Z,0.00
2018-06-13T00:52:26.617Z,0.00
2018-06-13T00:53:26.609Z,0.00
2018-06-13T00:54:26.601Z,0.00
2018-06-13T00:55:26.575Z,0.00
2018-06-13T00:56:26.561Z,0.00
2018-06-13T00:57:26.564Z,0.00
2018-06-13T00:58:26.539Z,0.00
2018-06-13T00:59:26.523Z,0.00
2018-06-13T01:00:26.503Z,0.00
2018-06-13T01:01:26.496Z,0.00
2018-06-13T01:02:26.481Z,0.00
2018-06-13T01:03:26.475Z,0.00
2018-06-13T01:04:26.449Z,0.00
2018-06-13T01:05:26.430Z,0.00
2018-06-13T01:06:26.425Z,0.00
2018-06-13T01:07:26.451Z,0.00
2018-06-13T01:08:26.391Z,0.00
2018-06-13T01:09:26.381Z,0.00
2018-06-13T01:10:26.357Z,0.00
2018-06-13T01:11:26.357Z,0.00
2018-06-13T01:12:26.335Z,0.00
2018-06-13T01:13:26.358Z,0.00
2018-06-13T01:14:26.300Z,0.00
2018-06-13T01:15:26.288Z,0.00
2018-06-13T01:16:26.285Z,0.00
2018-06-13T01:17:26.258Z,0.00
2018-06-13T01:18:26.254Z,0.00
2018-06-13T01:19:26.232Z,0.00
2018-06-13T01:20:26.220Z,0.00
2018-06-13T01:21:26.203Z,0.00
2018-06-13T01:22:26.187Z,0.00
2018-06-13T01:23:26.178Z,0.00
2018-06-13T01:24:26.164Z,0.00
2018-06-13T01:25:26.138Z,0.00
2018-06-13T01:26:26.129Z,0.00
2018-06-13T01:27:26.109Z,0.00
2018-06-13T01:28:26.097Z,0.00
2018-06-13T01:29:26.081Z,0.00
2018-06-13T01:30:26.074Z,0.00
2018-06-13T01:31:26.055Z,0.00
2018-06-13T01:32:26.039Z,0.00
2018-06-13T01:33:26.023Z,0.00
2018-06-13T01:34:26.014Z,0.00
2018-06-13T01:35:25.997Z,0.00
2018-06-13T01:36:25.976Z,0.00
2018-06-13T01:37:25.966Z,0.00
2018-06-13T01:38:25.951Z,0.00
2018-06-13T01:39:25.938Z,0.00
2018-06-13T01:40:25.926Z,0.00
2018-06-13T01:41:25.911Z,0.00
2018-06-13T01:42:25.897Z,0.00
2018-06-13T01:43:25.874Z,0.00
2018-06-13T01:44:25.862Z,0.00
2018-06-13T01:45:25.846Z,0.00
2018-06-13T01:46:25.840Z,0.00
2018-06-13T01:47:25.817Z,0.00
2018-06-13T01:48:25.808Z,0.00
2018-06-13T01:49:25.798Z,0.00
2018-06-13T01:50:25.775Z,0.00
2018-06-13T01:51:25.765Z,0.00
2018-06-13T01:52:25.745Z,0.00
2018-06-13T01:53:25.729Z,0.00
2018-06-13T01:54:25.714Z,0.00
2018-06-13T01:55:25.706Z,0.00
2018-06-13T01:56:25.685Z,0.00
2018-06-13T01:57:25.670Z,0.00
2018-06-13T01:58:25.661Z,0.00
2018-06-13T01:59:25.644Z,0.00
2018-06-13T02:00:25.655Z,0.00
2018-06-13T02:01:25.625Z,0.00
2018-06-13T02:02:25.596Z,0.00
2018-06-13T02:03:25.584Z,0.00
2018-06-13T02:04:25.569Z,0.00
2018-06-13T02:05:25.558Z,0.00
2018-06-13T02:06:25.545Z,0.00
2018-06-13T02:07:25.525Z,0.00
2018-06-13T02:08:25.506Z,0.00
2018-06-13T02:09:25.507Z,0.00
2018-06-13T02:10:25.477Z,0.00
2018-06-13T02:11:25.471Z,0.00
2018-06-13T02:12:25.468Z,0.00
2018-06-13T02:13:25.430Z,0.00
2018-06-13T02:14:25.426Z,0.00
2018-06-13T02:15:25.401Z,0.00
2018-06-13T02:16:25.392Z,0.00
2018-06-13T02:17:25.379Z,0.00
2018-06-13T02:18:25.365Z,0.00
2018-06-13T02:19:25.349Z,0.00
2018-06-13T02:20:25.330Z,0.00
2018-06-13T02:21:25.323Z,0.00
2018-06-13T02:22:25.304Z,0.00
2018-06-13T02:23:25.288Z,0.00
2018-06-13T02:24:25.272Z,0.00
2018-06-13T02:25:25.262Z,0.00
2018-06-13T02:26:25.285Z,0.00
2018-06-13T02:27:25.259Z,0.00
2018-06-13T02:28:25.221Z,0.00
2018-06-13T02:29:25.205Z,0.00
2018-06-13T02:30:25.196Z,0.00
2018-06-13T02:31:25.216Z,0.00
2018-06-13T02:32:25.159Z,0.00
2018-06-13T02:33:25.140Z,0.00
2018-06-13T02:34:25.140Z,0.00
2018-06-13T02:35:25.111Z,0.00
2018-06-13T02:36:25.101Z,0.00
2018-06-13T02:37:25.081Z,0.00
2018-06-13T02:38:25.096Z,0.00
2018-06-13T02:39:25.053Z,4.00
2018-06-13T02:40:25.037Z,4.00
2018-06-13T02:41:25.024Z,4.00
2018-06-13T02:42:25.003Z,0.00
2018-06-13T02:43:24.998Z,0.00
2018-06-13T02:44:24.984Z,4.00
2018-06-13T02:45:24.970Z,4.00
2018-06-13T02:46:24.957Z,4.00
2018-06-13T02:47:24.954Z,4.00
2018-06-13T02:48:24.920Z,8.00
2018-06-13T02:49:24.909Z,8.00
2018-06-13T02:50:24.893Z,8.00
2018-06-13T02:51:24.877Z,8.00
2018-06-13T02:52:24.868Z,12.00
2018-06-13T02:53:24.852Z,16.00
2018-06-13T02:54:24.832Z,16.00
2018-06-13T02:55:24.839Z,16.00
2018-06-13T02:56:24.808Z,20.00
2018-06-13T02:57:24.811Z,20.00
2018-06-13T02:58:24.772Z,24.00
2018-06-13T02:59:24.770Z,24.00
2018-06-13T03:00:24.750Z,28.00
2018-06-13T03:01:24.727Z,28.00
2018-06-13T03:02:24.720Z,28.00
2018-06-13T03:03:24.706Z,32.00
2018-06-13T03:04:24.682Z,36.00
2018-06-13T03:05:24.673Z,36.00
2018-06-13T03:06:24.660Z,44.00
2018-06-13T03:07:24.657Z,48.00
2018-06-13T03:08:24.628Z,56.00
2018-06-13T03:09:24.616Z,64.00
2018-06-13T03:10:25.231Z,76.00
2018-06-13T03:11:24.587Z,84.00
2018-06-13T03:12:24.577Z,96.00
2018-06-13T03:13:24.555Z,104.00
2018-06-13T03:14:24.537Z,112.00
2018-06-13T03:15:24.530Z,120.00
2018-06-13T03:16:24.523Z,124.00
2018-06-13T03:17:24.492Z,132.00
2018-06-13T03:18:24.491Z,140.00
2018-06-13T03:19:24.466Z,144.00
2018-06-13T03:20:24.450Z,152.00
2018-06-13T03:21:24.437Z,160.00
2018-06-13T03:22:24.424Z,168.00
2018-06-13T03:23:24.415Z,172.00
2018-06-13T03:24:24.389Z,184.00
2018-06-13T03:25:24.385Z,196.00
2018-06-13T03:26:24.363Z,208.00
2018-06-13T03:27:24.351Z,224.00
2018-06-13T03:28:24.332Z,244.00
2018-06-13T03:29:24.320Z,272.00
2018-06-13T03:30:24.313Z,300.00
2018-06-13T03:31:24.287Z,316.00
2018-06-13T03:32:24.272Z,340.00
2018-06-13T03:33:24.265Z,368.00
2018-06-13T03:34:24.239Z,392.00
2018-06-13T03:35:24.220Z,424.00
2018-06-13T03:36:24.211Z,452.00
2018-06-13T03:37:24.200Z,484.00
2018-06-13T03:38:24.189Z,508.00
2018-06-13T03:39:24.171Z,528.00
2018-06-13T03:40:24.155Z,544.00
2018-06-13T03:41:24.139Z,568.00
2018-06-13T03:42:24.152Z,596.00
2018-06-13T03:43:24.114Z,616.00
2018-06-13T03:44:24.101Z,660.00
2018-06-13T03:45:24.078Z,696.00
2018-06-13T03:46:24.072Z,728.00
2018-06-13T03:47:24.044Z,776.00
2018-06-13T03:48:24.038Z,800.00
2018-06-13T03:49:24.024Z,820.00
2018-06-13T03:50:24.005Z,848.00
2018-06-13T03:51:23.995Z,900.00
2018-06-13T03:52:23.979Z,956.00
2018-06-13T03:53:23.968Z,1020.00
2018-06-13T03:54:23.946Z,1088.00
2018-06-13T03:55:23.939Z,1128.00
2018-06-13T03:56:23.917Z,1156.00
2018-06-13T03:57:23.904Z,1164.00
2018-06-13T03:58:23.887Z,1196.00
2018-06-13T03:59:23.881Z,1216.00
2018-06-13T04:00:23.862Z,1228.00
2018-06-13T04:01:23.840Z,1244.00
2018-06-13T04:02:23.830Z,1272.00
2018-06-13T04:03:23.814Z,1320.00
2018-06-13T04:04:23.798Z,1380.00
2018-06-13T04:05:23.788Z,1436.00
2018-06-13T04:06:23.772Z,1484.00
2018-06-13T04:07:23.759Z,1564.00
2018-06-13T04:08:23.756Z,1628.00
2018-06-13T04:09:23.733Z,1692.00
2018-06-13T04:10:23.714Z,1732.00
2018-06-13T04:11:23.695Z,1776.00
2018-06-13T04:12:23.679Z,1828.00
2018-06-13T04:13:23.666Z,1864.00
2018-06-13T04:14:23.650Z,1880.00
2018-06-13T04:15:23.641Z,1892.00
2018-06-13T04:16:23.625Z,1904.00
2018-06-13T04:17:23.609Z,1924.00
2018-06-13T04:18:23.589Z,1952.00
2018-06-13T04:19:23.588Z,1984.00
2018-06-13T04:20:23.569Z,2036.00
2018-06-13T04:21:23.550Z,2056.00
2018-06-13T04:22:23.552Z,2064.00
2018-06-13T04:23:23.524Z,2064.00
2018-06-13T04:24:23.514Z,2068.00
2018-06-13T04:25:23.499Z,2088.00
2018-06-13T04:26:23.476Z,2144.00
2018-06-13T04:27:23.480Z,2224.00
2018-06-13T04:28:23.454Z,2300.00
2018-06-13T04:29:23.434Z,2380.00
2018-06-13T04:30:23.428Z,2460.00
2018-06-13T04:31:23.408Z,2524.00
2018-06-13T04:32:23.390Z,2564.00
2018-06-13T04:33:23.386Z,2604.00
2018-06-13T04:34:23.361Z,2660.00
2018-06-13T04:35:23.345Z,2752.00
2018-06-13T04:36:23.338Z,2840.00
2018-06-13T04:37:23.326Z,2920.00
2018-06-13T04:38:23.309Z,3008.00
2018-06-13T04:39:23.290Z,3120.00
2018-06-13T04:40:23.278Z,3288.00
2018-06-13T04:41:23.258Z,3452.00
2018-06-13T04:42:23.245Z,3584.00
2018-06-13T04:43:23.235Z,3728.00
2018-06-13T04:44:23.225Z,3820.00
2018-06-13T04:45:23.200Z,3864.00
2018-06-13T04:46:23.196Z,3892.00
2018-06-13T04:47:23.182Z,3932.00
2018-06-13T04:48:23.158Z,3944.00
2018-06-13T04:49:23.145Z,3968.00
2018-06-13T04:50:23.152Z,3996.00
2018-06-13T04:51:23.126Z,4080.00
2018-06-13T04:52:23.104Z,4152.00
2018-06-13T04:53:23.092Z,4220.00
2018-06-13T04:54:23.072Z,4288.00
2018-06-13T04:55:23.060Z,4356.00
2018-06-13T04:56:23.049Z,4524.00
2018-06-13T04:57:23.037Z,4728.00
2018-06-13T04:58:23.022Z,4900.00
2018-06-13T04:59:23.002Z,5028.00
2018-06-13T05:00:22.989Z,5152.00
2018-06-13T05:01:22.987Z,5276.00
2018-06-13T05:02:22.963Z,5360.00
2018-06-13T05:03:22.946Z,5460.00
2018-06-13T05:04:22.931Z,5540.00
2018-06-13T05:05:22.919Z,5544.00
2018-06-13T05:06:22.908Z,5504.00
2018-06-13T05:07:22.895Z,5428.00
2018-06-13T05:08:22.882Z,5320.00
2018-06-13T05:09:22.867Z,5188.00
2018-06-13T05:10:22.849Z,4904.00
2018-06-13T05:11:22.838Z,4616.00
2018-06-13T05:12:22.825Z,4308.00
2018-06-13T05:13:22.808Z,4036.00
2018-06-13T05:14:22.796Z,3848.00
2018-06-13T05:15:22.786Z,3780.00
2018-06-13T05:16:22.768Z,3732.00
2018-06-13T05:17:22.753Z,3780.00
2018-06-13T05:18:22.750Z,3700.00
2018-06-13T05:19:22.724Z,3540.00
2018-06-13T05:20:22.709Z,3500.00
2018-06-13T05:21:22.695Z,3500.00
2018-06-13T05:22:22.686Z,3496.00
2018-06-13T05:23:22.673Z,3508.00
2018-06-13T05:24:22.656Z,3536.00
2018-06-13T05:25:22.638Z,3604.00
2018-06-13T05:26:22.625Z,3688.00
2018-06-13T05:27:22.615Z,3744.00
2018-06-13T05:28:22.599Z,3736.00
2018-06-13T05:29:22.585Z,3748.00
2018-06-13T05:30:22.568Z,3764.00
2018-06-13T05:31:22.558Z,3772.00
2018-06-13T05:32:22.542Z,3792.00
2018-06-13T05:33:22.530Z,3796.00
2018-06-13T05:34:22.548Z,3808.00
2018-06-13T05:35:22.497Z,3824.00
2018-06-13T05:36:22.481Z,3844.00
2018-06-13T05:37:22.472Z,3848.00
2018-06-13T05:38:22.458Z,3860.00
2018-06-13T05:39:22.436Z,3900.00
2018-06-13T05:40:22.424Z,3912.00
2018-06-13T05:41:22.412Z,3936.00
2018-06-13T05:42:22.398Z,3972.00
2018-06-13T05:43:22.389Z,4068.00
2018-06-13T05:44:22.367Z,4140.00
2018-06-13T05:45:22.357Z,4148.00
2018-06-13T05:46:22.338Z,4132.00
2018-06-13T05:47:22.322Z,4124.00
2018-06-13T05:48:22.312Z,4120.00
2018-06-13T05:49:22.296Z,4092.00
2018-06-13T05:50:22.290Z,4120.00
2018-06-13T05:51:22.267Z,4140.00
2018-06-13T05:52:22.248Z,4200.00
2018-06-13T05:53:22.242Z,4216.00
2018-06-13T05:54:22.219Z,4256.00
2018-06-13T05:55:22.210Z,4312.00
2018-06-13T05:56:22.197Z,4316.00
2018-06-13T05:57:22.178Z,4460.00
2018-06-13T05:58:22.165Z,4484.00
2018-06-13T05:59:22.150Z,4520.00
2018-06-13T06:00:22.137Z,5040.00
2018-06-13T06:01:22.156Z,5352.00
2018-06-13T06:02:22.115Z,5516.00
2018-06-13T06:03:22.095Z,5168.00
2018-06-13T06:04:22.086Z,5376.00
2018-06-13T06:05:22.063Z,5740.00
2018-06-13T06:06:22.051Z,5904.00
2018-06-13T06:07:22.041Z,6628.00
2018-06-13T06:08:22.025Z,6768.00
2018-06-13T06:09:22.009Z,6196.00
2018-06-13T06:10:22.028Z,7372.00
2018-06-13T06:11:21.985Z,8284.00
2018-06-13T06:12:21.965Z,7304.00
2018-06-13T06:13:21.952Z,7404.00
2018-06-13T06:14:21.946Z,6344.00
2018-06-13T06:15:21.927Z,6492.00
2018-06-13T06:16:21.911Z,7352.00
2018-06-13T06:17:21.895Z,7664.00
2018-06-13T06:18:21.926Z,7856.00
2018-06-13T06:19:21.876Z,7800.00
2018-06-13T06:20:21.853Z,6840.00
2018-06-13T06:21:21.846Z,6368.00
2018-06-13T06:22:21.828Z,6848.00
2018-06-13T06:23:21.815Z,8108.00
2018-06-13T06:24:21.802Z,8188.00
2018-06-13T06:25:21.796Z,9504.00
2018-06-13T06:26:21.777Z,10344.00
2018-06-13T06:27:21.759Z,9184.00
2018-06-13T06:28:21.748Z,9376.00
2018-06-13T06:29:21.737Z,8628.00
2018-06-13T06:30:21.721Z,9164.00
2018-06-13T06:31:21.705Z,8264.00
2018-06-13T06:32:21.699Z,7612.00
2018-06-13T06:33:21.679Z,7148.00
2018-06-13T06:34:21.676Z,6180.00
2018-06-13T06:35:21.660Z,5956.00
2018-06-13T06:36:21.641Z,6508.00
2018-06-13T06:37:21.625Z,7444.00
2018-06-13T06:38:21.620Z,7648.00
2018-06-13T06:39:21.606Z,8996.00
2018-06-13T06:40:21.589Z,7892.00
2018-06-13T06:41:21.587Z,8628.00
2018-06-13T06:42:21.569Z,8444.00
2018-06-13T06:43:21.551Z,8596.00
2018-06-13T06:44:21.543Z,9488.00
2018-06-13T06:45:21.524Z,10364.00
2018-06-13T06:46:21.511Z,10688.00
2018-06-13T06:47:21.511Z,11244.00
2018-06-13T06:48:21.492Z,11684.00
2018-06-13T06:49:21.476Z,13480.00
2018-06-13T06:50:21.460Z,14228.00
2018-06-13T06:51:21.453Z,15184.00
2018-06-13T06:52:21.434Z,16176.00
2018-06-13T06:53:21.428Z,14916.00
2018-06-13T06:54:21.412Z,12984.00
2018-06-13T06:55:21.415Z,13376.00
2018-06-13T06:56:21.390Z,11892.00
2018-06-13T06:57:21.377Z,11212.00
2018-06-13T06:58:21.370Z,10968.00
2018-06-13T06:59:21.354Z,10824.00
2018-06-13T07:00:21.341Z,11280.00
2018-06-13T07:01:21.331Z,12168.00
2018-06-13T07:02:21.322Z,12676.00
2018-06-13T07:03:21.312Z,13172.00
2018-06-13T07:04:21.302Z,13764.00
2018-06-13T07:05:21.289Z,15132.00
2018-06-13T07:06:21.277Z,16124.00
2018-06-13T07:07:21.267Z,15964.00
2018-06-13T07:08:21.255Z,14244.00
2018-06-13T07:09:21.235Z,13116.00
2018-06-13T07:10:21.229Z,11372.00
2018-06-13T07:11:21.219Z,10988.00
2018-06-13T07:12:21.206Z,10280.00
2018-06-13T07:13:21.197Z,9288.00
2018-06-13T07:14:21.178Z,9032.00
2018-06-13T07:15:21.173Z,9048.00
2018-06-13T07:16:21.161Z,9492.00
2018-06-13T07:17:21.148Z,9828.00
2018-06-13T07:18:21.133Z,10256.00
2018-06-13T07:19:21.129Z,10676.00
2018-06-13T07:20:21.115Z,10832.00
2018-06-13T07:21:21.103Z,10852.00
2018-06-13T07:22:21.087Z,12248.00
2018-06-13T07:23:21.077Z,12504.00
2018-06-13T07:24:21.067Z,14052.00
2018-06-13T07:25:21.055Z,14988.00
2018-06-13T07:26:21.045Z,15164.00
2018-06-13T07:27:21.032Z,15520.00
2018-06-13T07:28:21.016Z,15428.00
2018-06-13T07:29:21.010Z,15624.00
2018-06-13T07:30:20.994Z,16052.00
2018-06-13T07:31:20.987Z,16128.00
2018-06-13T07:32:20.978Z,16348.00
2018-06-13T07:33:20.962Z,16904.00
2018-06-13T07:34:20.950Z,17600.00
2018-06-13T07:35:20.942Z,18112.00
2018-06-13T07:36:20.929Z,18304.00
2018-06-13T07:37:20.924Z,18432.00
2018-06-13T07:38:20.907Z,17856.00
2018-06-13T07:39:20.894Z,17504.00
2018-06-13T07:40:20.888Z,16244.00
2018-06-13T07:41:20.876Z,15780.00
2018-06-13T07:42:20.860Z,15084.00
2018-06-13T07:43:20.846Z,14972.00
2018-06-13T07:44:20.843Z,14780.00
2018-06-13T07:45:20.828Z,14628.00
2018-06-13T07:46:20.822Z,14848.00
2018-06-13T07:47:20.808Z,14864.00
2018-06-13T07:48:20.799Z,14688.00
2018-06-13T07:49:20.785Z,14200.00
2018-06-13T07:50:20.771Z,13180.00
2018-06-13T07:51:20.766Z,12476.00
2018-06-13T07:52:20.748Z,12312.00
2018-06-13T07:53:20.747Z,12368.00
2018-06-13T07:54:20.728Z,12748.00
2018-06-13T07:55:20.725Z,12564.00
2018-06-13T07:56:20.706Z,13476.00
2018-06-13T07:57:20.728Z,13728.00
2018-06-13T07:58:20.686Z,13764.00
2018-06-13T07:59:20.680Z,14056.00
2018-06-13T08:00:20.665Z,13160.00
2018-06-13T08:01:20.653Z,11884.00
2018-06-13T08:02:20.663Z,10520.00
2018-06-13T08:03:20.636Z,9212.00
2018-06-13T08:04:20.616Z,9576.00
2018-06-13T08:05:20.609Z,9936.00
2018-06-13T08:06:20.607Z,9988.00
2018-06-13T08:07:20.584Z,10768.00
2018-06-13T08:08:20.588Z,12160.00
2018-06-13T08:09:20.567Z,13532.00
2018-06-13T08:10:20.552Z,14372.00
2018-06-13T08:11:20.539Z,15208.00
2018-06-13T08:12:20.532Z,15744.00
2018-06-13T08:13:20.516Z,15952.00
2018-06-13T08:14:20.507Z,16264.00
2018-06-13T08:15:20.500Z,16868.00
2018-06-13T08:16:20.490Z,17248.00
2018-06-13T08:17:20.472Z,17248.00
2018-06-13T08:18:20.462Z,16852.00
2018-06-13T08:19:20.452Z,16432.00
2018-06-13T08:20:20.439Z,16368.00
2018-06-13T08:21:20.430Z,16284.00
2018-06-13T08:22:20.423Z,16580.00
2018-06-13T08:23:20.411Z,17088.00
2018-06-13T08:24:20.401Z,17568.00
2018-06-13T08:25:20.389Z,17920.00
2018-06-13T08:26:20.374Z,17504.00
2018-06-13T08:27:20.366Z,16848.00
2018-06-13T08:28:20.351Z,16516.00
2018-06-13T08:29:20.342Z,17120.00
2018-06-13T08:30:20.338Z,16756.00
2018-06-13T08:31:20.322Z,17472.00
2018-06-13T08:32:20.313Z,17952.00
2018-06-13T08:33:20.302Z,18496.00
2018-06-13T08:34:20.290Z,16844.00
2018-06-13T08:35:20.287Z,15428.00
2018-06-13T08:36:20.268Z,14264.00
2018-06-13T08:37:20.265Z,12728.00
2018-06-13T08:38:20.257Z,11068.00
2018-06-13T08:39:20.239Z,9464.00
2018-06-13T08:40:20.233Z,9012.00
2018-06-13T08:41:20.220Z,10156.00
2018-06-13T08:42:20.211Z,11492.00
2018-06-13T08:43:20.200Z,12492.00
2018-06-13T08:44:20.185Z,14380.00
2018-06-13T08:45:20.176Z,16068.00
2018-06-13T08:46:20.169Z,17984.00
2018-06-13T08:47:20.159Z,19712.00
2018-06-13T08:48:20.151Z,21120.00
2018-06-13T08:49:20.137Z,22208.00
2018-06-13T08:50:20.121Z,23104.00
2018-06-13T08:51:20.109Z,23616.00
2018-06-13T08:52:20.105Z,24192.00
2018-06-13T08:53:20.096Z,24832.00
2018-06-13T08:54:20.080Z,25088.00
2018-06-13T08:55:20.071Z,25120.00
2018-06-13T08:56:20.058Z,25632.00
2018-06-13T08:57:20.054Z,26848.00
2018-06-13T08:58:20.044Z,29760.00
2018-06-13T08:59:20.033Z,31648.00
2018-06-13T09:00:20.027Z,31136.00
2018-06-13T09:01:20.009Z,30336.00
2018-06-13T09:02:20.006Z,30784.00
2018-06-13T09:03:20.061Z,29632.00
2018-06-13T09:04:19.985Z,27808.00
2018-06-13T09:05:19.980Z,26464.00
2018-06-13T09:06:19.972Z,25408.00
2018-06-13T09:07:19.961Z,22944.00
2018-06-13T09:08:19.949Z,20064.00
2018-06-13T09:09:19.939Z,17472.00
2018-06-13T09:10:19.929Z,14700.00
2018-06-13T09:11:19.923Z,12332.00
2018-06-13T09:12:19.921Z,11784.00
2018-06-13T09:13:19.904Z,12616.00
2018-06-13T09:14:19.894Z,14492.00
2018-06-13T09:15:19.894Z,15828.00
2018-06-13T09:16:19.885Z,16456.00
2018-06-13T09:17:19.878Z,16692.00
2018-06-13T09:18:19.859Z,16308.00
2018-06-13T09:19:19.859Z,16124.00
2018-06-13T09:20:19.843Z,16280.00
2018-06-13T09:21:19.833Z,17504.00
2018-06-13T09:22:19.842Z,18944.00
2018-06-13T09:23:19.817Z,20320.00
2018-06-13T09:24:19.814Z,19904.00
2018-06-13T09:25:19.799Z,20192.00
2018-06-13T09:26:19.787Z,19328.00
2018-06-13T09:27:19.788Z,19968.00
2018-06-13T09:28:19.777Z,19264.00
2018-06-13T09:29:19.758Z,18336.00
2018-06-13T09:30:19.749Z,17312.00
2018-06-13T09:31:19.778Z,15900.00
2018-06-13T09:32:19.726Z,14100.00
2018-06-13T09:33:19.716Z,12752.00
2018-06-13T09:34:19.714Z,12208.00
2018-06-13T09:35:19.697Z,11376.00
2018-06-13T09:36:19.697Z,10824.00
2018-06-13T09:37:19.735Z,10452.00
2018-06-13T09:38:19.668Z,10756.00
2018-06-13T09:39:19.665Z,11208.00
2018-06-13T09:40:19.652Z,11444.00
2018-06-13T09:41:19.636Z,12400.00
2018-06-13T09:42:19.630Z,13216.00
2018-06-13T09:43:19.617Z,14552.00
2018-06-13T09:44:19.612Z,14952.00
2018-06-13T09:45:19.595Z,14680.00
2018-06-13T09:46:19.591Z,15392.00
2018-06-13T09:47:23.459Z,15744.00
2018-06-13T09:48:19.564Z,16048.00
2018-06-13T09:49:19.557Z,16292.00
2018-06-13T09:50:19.551Z,16168.00
2018-06-13T09:51:19.532Z,15776.00
2018-06-13T09:52:19.519Z,15104.00
2018-06-13T09:53:19.512Z,14644.00
2018-06-13T09:54:19.500Z,14304.00
2018-06-13T09:55:19.490Z,13948.00
2018-06-13T09:56:19.477Z,14092.00
2018-06-13T09:57:19.469Z,14312.00
2018-06-13T09:58:19.464Z,14836.00
2018-06-13T09:59:19.455Z,15648.00
2018-06-13T10:00:19.439Z,16556.00
2018-06-13T10:01:19.431Z,17024.00
2018-06-13T10:02:19.421Z,17824.00
2018-06-13T10:03:19.417Z,18464.00
2018-06-13T10:04:19.397Z,18496.00
2018-06-13T10:05:19.391Z,18368.00
2018-06-13T10:06:19.374Z,18880.00
2018-06-13T10:07:19.367Z,18752.00
2018-06-13T10:08:19.363Z,18944.00
2018-06-13T10:09:19.348Z,20224.00
2018-06-13T10:10:19.335Z,21632.00
2018-06-13T10:11:19.366Z,22080.00
2018-06-13T10:12:19.313Z,22176.00
2018-06-13T10:13:19.304Z,21696.00
2018-06-13T10:14:19.329Z,21024.00
2018-06-13T10:15:19.288Z,20992.00
2018-06-13T10:16:19.275Z,20864.00
2018-06-13T10:17:19.265Z,20864.00
2018-06-13T10:18:19.249Z,21664.00
2018-06-13T10:19:19.245Z,21984.00
2018-06-13T10:20:19.236Z,22176.00
2018-06-13T10:21:19.217Z,21952.00
2018-06-13T10:22:19.214Z,21568.00
2018-06-13T10:23:19.207Z,20288.00
2018-06-13T10:24:19.194Z,20160.00
2018-06-13T10:25:19.185Z,20224.00
2018-06-13T10:26:19.178Z,20896.00
2018-06-13T10:27:19.164Z,21280.00
2018-06-13T10:28:19.150Z,21408.00
2018-06-13T10:29:19.144Z,22304.00
2018-06-13T10:30:19.135Z,22592.00
2018-06-13T10:31:19.125Z,23296.00
2018-06-13T10:32:19.115Z,24096.00
2018-06-13T10:33:19.109Z,24512.00
2018-06-13T10:34:19.108Z,25696.00
2018-06-13T10:35:19.093Z,25632.00
2018-06-13T10:36:19.083Z,25792.00
2018-06-13T10:37:19.067Z,26688.00
2018-06-13T10:38:19.061Z,27392.00
2018-06-13T10:39:19.051Z,26720.00
2018-06-13T10:40:19.051Z,26080.00
2018-06-13T10:41:19.036Z,25280.00
2018-06-13T10:42:19.027Z,25312.00
2018-06-13T10:43:19.016Z,25728.00
2018-06-13T10:44:19.006Z,24800.00
2018-06-13T10:45:19.013Z,24000.00
2018-06-13T10:46:18.990Z,24448.00
2018-06-13T10:47:18.984Z,25280.00
2018-06-13T10:48:18.974Z,25664.00
2018-06-13T10:49:18.973Z,25664.00
2018-06-13T10:50:18.958Z,26848.00
2018-06-13T10:51:18.954Z,29280.00
2018-06-13T10:52:18.941Z,32352.00
2018-06-13T10:53:18.935Z,34304.00
2018-06-13T10:54:18.925Z,33152.00
2018-06-13T10:55:18.920Z,30272.00
2018-06-13T10:56:18.915Z,28992.00
2018-06-13T10:57:18.913Z,28064.00
2018-06-13T10:58:18.905Z,27680.00
2018-06-13T10:59:18.894Z,26816.00
2018-06-13T11:00:18.881Z,24800.00
2018-06-13T11:01:18.881Z,21888.00
2018-06-13T11:02:18.871Z,17536.00
2018-06-13T11:03:18.864Z,15724.00
2018-06-13T11:04:18.858Z,16312.00
2018-06-13T11:05:18.846Z,16040.00
2018-06-13T11:06:18.839Z,16080.00
2018-06-13T11:07:18.843Z,15900.00
2018-06-13T11:08:18.823Z,15060.00
2018-06-13T11:09:18.816Z,13720.00
2018-06-13T11:10:18.810Z,12328.00
2018-06-13T11:11:18.801Z,11476.00
2018-06-13T11:12:18.789Z,10048.00
2018-06-13T11:13:18.788Z,9208.00
2018-06-13T11:14:18.776Z,8516.00
2018-06-13T11:15:18.771Z,7696.00
2018-06-13T11:16:18.761Z,7136.00
2018-06-13T11:17:18.751Z,7068.00
2018-06-13T11:18:18.745Z,6604.00
2018-06-13T11:19:18.732Z,6028.00
2018-06-13T11:20:18.756Z,5736.00
2018-06-13T11:21:18.710Z,6116.00
2018-06-13T11:22:18.706Z,6652.00
2018-06-13T11:23:18.697Z,7524.00
2018-06-13T11:24:18.687Z,8460.00
2018-06-13T11:25:18.678Z,9108.00
2018-06-13T11:26:18.666Z,9908.00
2018-06-13T11:27:18.653Z,10656.00
2018-06-13T11:28:18.654Z,11068.00
2018-06-13T11:29:18.633Z,11580.00
2018-06-13T11:30:18.620Z,11948.00
2018-06-13T11:31:18.617Z,12432.00
2018-06-13T11:32:18.598Z,12936.00
2018-06-13T11:33:18.589Z,13408.00
2018-06-13T11:34:18.585Z,13728.00
2018-06-13T11:35:18.566Z,14200.00
2018-06-13T11:36:18.557Z,14676.00
2018-06-13T11:37:18.544Z,15144.00
2018-06-13T11:38:18.540Z,15932.00
2018-06-13T11:39:18.524Z,16960.00
2018-06-13T11:40:18.511Z,17824.00
2018-06-13T11:41:18.530Z,18688.00
2018-06-13T11:42:18.499Z,19328.00
2018-06-13T11:43:18.482Z,19712.00
2018-06-13T11:44:18.476Z,20256.00
2018-06-13T11:45:18.460Z,20992.00
2018-06-13T11:46:18.457Z,21216.00
2018-06-13T11:47:18.441Z,21888.00
2018-06-13T11:48:18.441Z,22944.00
2018-06-13T11:49:18.428Z,23744.00
2018-06-13T11:50:18.419Z,24256.00
2018-06-13T11:51:18.406Z,25440.00
2018-06-13T11:52:18.393Z,26304.00
2018-06-13T11:53:18.390Z,26496.00
2018-06-13T11:54:18.380Z,26272.00
2018-06-13T11:55:18.364Z,26656.00
2018-06-13T11:56:18.355Z,27296.00
2018-06-13T11:57:18.351Z,27456.00
2018-06-13T11:58:18.342Z,24288.00
2018-06-13T11:59:18.335Z,22112.00
2018-06-13T12:00:18.334Z,20704.00
2018-06-13T12:01:18.316Z,19520.00
2018-06-13T12:02:18.310Z,18912.00
2018-06-13T12:03:18.294Z,18912.00
2018-06-13T12:04:18.284Z,19744.00
2018-06-13T12:05:18.278Z,21344.00
2018-06-13T12:06:18.272Z,22496.00
2018-06-13T12:07:18.268Z,23136.00
2018-06-13T12:08:18.252Z,22848.00
2018-06-13T12:09:18.242Z,21344.00
2018-06-13T12:10:18.233Z,19744.00
2018-06-13T12:11:18.229Z,18784.00
2018-06-13T12:12:18.217Z,17376.00
2018-06-13T12:13:18.210Z,16452.00
2018-06-13T12:14:18.207Z,16408.00